Time;durP1;ratioP1;P1;durP2;ratioP2;P2;SDS_P1;SDS_P2;PMS_P1;PMS_P2;Temp;Humidity;BMP_temperature;BMP_pressure;BME280_temperature;BME280_humidity;BME280_pressure;Samples;Min_cycle;Max_cycle;Signal;HPM_P1;HPM_P2
2023/04/08 00:00:28;;;;;;;24.52;8.80;;;1.80;99.90;;;;;;4884108;29;20451;-64
2023/04/08 00:02:55;;;;;;;15.50;8.82;;;1.80;99.90;;;;;;4886093;29;20055;-62
2023/04/08 00:05:22;;;;;;;17.60;10.10;;;1.70;99.90;;;;;;4887644;29;20060;-61
2023/04/08 00:07:49;;;;;;;21.60;8.02;;;1.70;99.90;;;;;;4884483;29;20147;-61
2023/04/08 00:10:16;;;;;;;20.73;9.02;;;1.70;99.90;;;;;;4892130;29;20057;-61
2023/04/08 00:12:43;;;;;;;21.77;9.23;;;1.70;99.90;;;;;;4889435;29;20045;-61
2023/04/08 00:15:10;;;;;;;18.38;9.10;;;1.70;99.90;;;;;;4890373;29;20060;-62
2023/04/08 00:17:36;;;;;;;12.25;7.28;;;1.70;99.90;;;;;;4890773;29;20063;-63
2023/04/08 00:20:04;;;;;;;19.77;11.38;;;1.70;99.90;;;;;;4888862;29;20055;-61
2023/04/08 00:22:31;;;;;;;13.38;9.48;;;1.70;99.90;;;;;;4889835;29;20076;-63
2023/04/08 00:24:58;;;;;;;13.27;8.13;;;1.70;99.90;;;;;;4890678;29;20128;-64
2023/04/08 00:27:25;;;;;;;13.60;8.57;;;1.70;99.90;;;;;;4886148;29;20048;-62
2023/04/08 00:29:52;;;;;;;15.43;9.93;;;1.60;99.90;;;;;;4870662;29;20144;-63
2023/04/08 00:32:19;;;;;;;13.95;8.90;;;1.60;99.90;;;;;;4872609;29;20136;-61
2023/04/08 00:34:46;;;;;;;14.07;10.30;;;1.70;99.90;;;;;;4891066;29;20060;-61
2023/04/08 00:37:12;;;;;;;12.65;9.35;;;1.60;99.90;;;;;;4889252;29;20054;-64
2023/04/08 00:39:39;;;;;;;14.45;10.40;;;1.60;99.90;;;;;;4889353;29;20061;-61
2023/04/08 00:42:08;;;;;;;16.58;10.77;;;1.60;99.90;;;;;;4890125;29;20049;-62
2023/04/08 00:44:35;;;;;;;18.38;12.20;;;1.60;99.90;;;;;;4888270;29;20052;-62
2023/04/08 00:47:03;;;;;;;18.50;12.02;;;1.60;99.90;;;;;;4888174;29;20162;-61
2023/04/08 00:49:30;;;;;;;17.65;12.68;;;1.60;99.90;;;;;;4890811;29;20049;-62
2023/04/08 00:51:59;;;;;;;13.60;10.40;;;1.50;99.90;;;;;;4889046;29;20104;-61
2023/04/08 00:54:26;;;;;;;15.15;11.40;;;1.50;99.90;;;;;;4889717;29;20052;-62
2023/04/08 00:56:53;;;;;;;16.25;11.43;;;1.60;99.90;;;;;;4886846;29;20088;-62
2023/04/08 00:59:20;;;;;;;17.48;11.82;;;1.50;99.90;;;;;;4887820;29;20056;-64
2023/04/08 01:02:11;;;;;;;13.13;10.52;;;1.50;99.90;;;;;;4887842;29;20482;-62
2023/04/08 01:04:53;;;;;;;14.98;10.57;;;1.60;99.90;;;;;;4887241;29;20060;-63
2023/04/08 01:07:28;;;;;;;15.13;10.75;;;1.60;99.90;;;;;;4888937;29;20539;-61
2023/04/08 01:10:00;;;;;;;13.57;10.57;;;1.60;99.90;;;;;;4888034;29;20112;-64
2023/04/08 01:12:29;;;;;;;13.93;10.05;;;1.60;99.90;;;;;;4869415;29;20076;-61
2023/04/08 01:15:02;;;;;;;15.90;10.95;;;1.60;99.90;;;;;;4872018;29;20519;-64
2023/04/08 01:17:29;;;;;;;16.92;11.85;;;1.60;99.90;;;;;;4890781;29;20056;-62
2023/04/08 01:19:59;;;;;;;16.23;10.50;;;1.60;99.90;;;;;;4886475;29;20495;-61
2023/04/08 01:22:36;;;;;;;22.65;10.93;;;1.60;99.90;;;;;;4889045;29;20447;-61
2023/04/08 01:25:15;;;;;;;16.10;9.55;;;1.60;99.90;;;;;;4891028;29;20053;-61
2023/04/08 01:27:43;;;;;;;14.27;9.75;;;1.60;99.90;;;;;;4887044;29;20064;-62
2023/04/08 01:30:11;;;;;;;13.50;9.43;;;1.60;99.90;;;;;;4886751;29;20076;-63
2023/04/08 01:32:40;;;;;;;13.50;11.57;;;1.60;99.90;;;;;;4887460;29;20051;-61
2023/04/08 01:35:08;;;;;;;17.58;11.55;;;1.60;99.90;;;;;;4888754;29;20057;-62
2023/04/08 01:37:36;;;;;;;13.20;9.18;;;1.60;99.90;;;;;;4872338;29;20057;-62
2023/04/08 01:40:06;;;;;;;12.68;7.70;;;1.70;99.90;;;;;;4887838;29;20083;-62
2023/04/08 01:42:37;;;;;;;12.43;8.80;;;1.60;99.90;;;;;;4875104;29;20063;-61
2023/04/08 01:45:06;;;;;;;12.40;9.27;;;1.60;99.90;;;;;;4890478;29;20052;-62
2023/04/08 01:47:36;;;;;;;11.77;9.02;;;1.60;99.90;;;;;;4889182;29;20056;-63
2023/04/08 01:50:05;;;;;;;15.13;9.63;;;1.60;99.90;;;;;;4887197;29;20499;-63
2023/04/08 01:52:34;;;;;;;12.27;9.30;;;1.60;99.90;;;;;;4883846;29;20044;-61
2023/04/08 01:55:01;;;;;;;11.30;9.07;;;1.50;99.90;;;;;;4888989;29;20143;-61
2023/04/08 01:57:31;;;;;;;12.45;9.00;;;1.50;99.90;;;;;;4889324;29;20140;-61
2023/04/08 02:00:06;;;;;;;14.68;9.32;;;1.50;99.90;;;;;;4871032;29;20578;-61
2023/04/08 02:02:46;;;;;;;12.40;9.50;;;1.50;99.90;;;;;;4885683;29;20088;-61
2023/04/08 02:05:14;;;;;;;12.05;9.80;;;1.50;99.90;;;;;;4890494;29;20313;-62
2023/04/08 02:07:41;;;;;;;12.07;9.65;;;1.50;99.90;;;;;;4886623;29;20052;-62
2023/04/08 02:10:08;;;;;;;11.43;9.00;;;1.50;99.90;;;;;;4888041;29;20044;-61
2023/04/08 02:12:35;;;;;;;14.77;8.88;;;1.50;99.90;;;;;;4891381;29;20454;-61
2023/04/08 02:15:08;;;;;;;10.70;7.28;;;1.40;99.90;;;;;;4887913;29;20052;-62
2023/04/08 02:17:59;;;;;;;12.95;8.50;;;1.40;99.90;;;;;;4885146;29;20135;-62
2023/04/08 02:20:36;;;;;;;12.98;9.27;;;1.40;99.90;;;;;;4885137;29;20134;-61
2023/04/08 02:23:15;;;;;;;9.98;8.25;;;1.40;99.90;;;;;;4873241;29;20583;-64
2023/04/08 02:25:44;;;;;;;13.90;8.80;;;1.40;99.90;;;;;;4885501;29;20052;-62
2023/04/08 02:28:12;;;;;;;12.80;9.18;;;1.30;99.90;;;;;;4886323;29;20058;-62
2023/04/08 02:30:49;;;;;;;13.82;8.25;;;1.30;99.90;;;;;;4885644;29;20060;-61
2023/04/08 02:33:20;;;;;;;14.93;10.20;;;1.40;99.90;;;;;;4887537;29;20059;-61
2023/04/08 02:35:53;;;;;;;15.23;10.20;;;1.30;99.90;;;;;;4869289;29;20064;-62
2023/04/08 02:38:22;;;;;;;12.13;7.72;;;1.30;99.90;;;;;;4869695;29;20064;-62
2023/04/08 02:40:50;;;;;;;12.23;9.07;;;1.30;99.90;;;;;;4890385;29;20053;-63
2023/04/08 02:43:17;;;;;;;14.02;10.00;;;1.30;99.90;;;;;;4888752;29;20139;-65
2023/04/08 02:45:44;;;;;;;16.30;9.13;;;1.30;99.90;;;;;;4886530;29;20151;-63
2023/04/08 02:48:11;;;;;;;12.68;8.40;;;1.30;99.90;;;;;;4874003;29;20057;-63
2023/04/08 02:50:39;;;;;;;13.30;8.68;;;1.30;99.90;;;;;;4889113;29;20054;-63
2023/04/08 02:53:08;;;;;;;13.43;9.18;;;1.30;99.90;;;;;;4890842;29;20067;-64
2023/04/08 02:55:36;;;;;;;14.15;8.75;;;1.30;99.90;;;;;;4888689;29;20049;-62
2023/04/08 02:58:03;;;;;;;11.90;8.30;;;1.30;99.90;;;;;;4888411;29;20567;-63
2023/04/08 03:00:30;;;;;;;13.57;10.13;;;1.30;99.90;;;;;;4888636;29;20047;-62
2023/04/08 03:02:57;;;;;;;12.32;8.10;;;1.30;99.90;;;;;;4887228;29;20056;-63
2023/04/08 03:05:25;;;;;;;14.10;8.85;;;1.30;99.90;;;;;;4887965;29;20055;-61
2023/04/08 03:07:52;;;;;;;12.55;8.25;;;1.30;99.90;;;;;;4884874;29;20053;-61
2023/04/08 03:10:19;;;;;;;13.82;8.60;;;1.30;99.90;;;;;;4886300;29;20499;-63
2023/04/08 03:12:46;;;;;;;14.02;8.95;;;1.30;99.90;;;;;;4889288;29;20495;-62
2023/04/08 03:15:13;;;;;;;12.75;9.27;;;1.30;99.90;;;;;;4887240;29;20259;-62
2023/04/08 03:17:40;;;;;;;19.60;10.63;;;1.30;99.90;;;;;;4892012;29;20115;-64
2023/04/08 03:20:07;;;;;;;15.20;9.95;;;1.30;99.90;;;;;;4886663;29;20060;-63
2023/04/08 03:22:35;;;;;;;16.08;9.90;;;1.30;99.90;;;;;;4886489;29;20123;-63
2023/04/08 03:25:03;;;;;;;14.90;9.13;;;1.30;99.90;;;;;;4888180;29;20051;-67
2023/04/08 03:27:30;;;;;;;16.35;9.38;;;1.30;99.90;;;;;;4885997;29;20045;-61
2023/04/08 03:29:57;;;;;;;13.45;9.70;;;1.30;99.90;;;;;;4885663;29;20085;-61
2023/04/08 03:32:24;;;;;;;13.77;7.93;;;1.30;99.90;;;;;;4888215;29;20060;-63
2023/04/08 03:34:51;;;;;;;13.50;9.63;;;1.30;99.90;;;;;;4891306;29;20051;-62
2023/04/08 03:37:18;;;;;;;15.23;8.20;;;1.30;99.90;;;;;;4887723;29;20059;-61
2023/04/08 03:39:45;;;;;;;14.40;8.88;;;1.30;99.90;;;;;;4885300;29;20049;-61
2023/04/08 03:42:12;;;;;;;16.23;9.20;;;1.20;99.90;;;;;;4888962;29;20415;-62
2023/04/08 03:44:39;;;;;;;17.55;9.40;;;1.20;99.90;;;;;;4893068;29;20076;-62
2023/04/08 03:47:06;;;;;;;12.68;9.25;;;1.30;99.90;;;;;;4892859;29;20117;-62
2023/04/08 03:49:33;;;;;;;14.07;10.02;;;1.20;99.90;;;;;;4888742;29;20064;-61
2023/04/08 03:52:00;;;;;;;23.27;9.63;;;1.20;99.90;;;;;;4890105;29;20063;-61
2023/04/08 03:54:26;;;;;;;14.32;9.80;;;1.20;99.90;;;;;;4890243;29;20517;-61
2023/04/08 03:56:53;;;;;;;13.60;9.85;;;1.20;99.90;;;;;;4891468;29;20056;-61
2023/04/08 03:59:20;;;;;;;13.23;9.27;;;1.20;99.90;;;;;;4891554;29;20065;-64
2023/04/08 04:01:47;;;;;;;18.35;10.20;;;1.20;99.90;;;;;;4889907;29;20052;-62
2023/04/08 04:04:15;;;;;;;13.02;9.20;;;1.20;99.90;;;;;;4890932;29;20084;-65
2023/04/08 04:06:42;;;;;;;17.13;10.52;;;1.20;99.90;;;;;;4891844;29;20056;-61
2023/04/08 04:09:10;;;;;;;12.90;8.82;;;1.20;99.90;;;;;;4892666;29;20059;-61
2023/04/08 04:11:36;;;;;;;15.43;10.00;;;1.20;99.90;;;;;;4891832;29;20056;-61
2023/04/08 04:14:03;;;;;;;12.57;8.27;;;1.20;99.90;;;;;;4887075;29;20056;-64
2023/04/08 04:16:30;;;;;;;13.45;9.02;;;1.20;99.90;;;;;;4891837;29;20083;-62
2023/04/08 04:18:59;;;;;;;15.18;9.15;;;1.20;99.90;;;;;;4890861;29;20514;-65
2023/04/08 04:21:26;;;;;;;14.77;8.45;;;1.20;99.90;;;;;;4893967;29;20057;-61
2023/04/08 04:23:53;;;;;;;15.70;8.32;;;1.20;99.90;;;;;;4874575;29;20155;-62
2023/04/08 04:26:20;;;;;;;14.55;8.55;;;1.20;99.90;;;;;;4890303;29;20055;-61
2023/04/08 04:28:46;;;;;;;16.30;8.50;;;1.30;99.90;;;;;;4891868;29;20434;-62
2023/04/08 04:31:32;;;;;;;12.55;8.93;;;1.30;99.90;;;;;;4890700;29;20049;-61
2023/04/08 04:33:59;;;;;;;14.43;8.95;;;1.30;99.90;;;;;;4888917;29;20044;-64
2023/04/08 04:36:26;;;;;;;13.07;8.02;;;1.40;99.90;;;;;;4891493;29;20052;-61
2023/04/08 04:38:53;;;;;;;14.52;8.82;;;1.40;99.90;;;;;;4891270;29;20053;-62
2023/04/08 04:41:20;;;;;;;12.02;8.05;;;1.40;99.90;;;;;;4889741;29;20076;-62
2023/04/08 04:43:47;;;;;;;10.73;8.20;;;1.50;99.90;;;;;;4889147;29;20167;-62
2023/04/08 04:46:14;;;;;;;12.00;8.23;;;1.50;99.90;;;;;;4889918;29;20151;-61
2023/04/08 04:48:41;;;;;;;15.65;7.93;;;1.50;99.90;;;;;;4890779;29;20084;-62
2023/04/08 04:51:08;;;;;;;16.98;8.68;;;1.50;99.90;;;;;;4891059;29;20053;-64
2023/04/08 04:53:35;;;;;;;15.02;7.53;;;1.60;99.90;;;;;;4889636;29;20048;-65
2023/04/08 04:56:02;;;;;;;11.15;7.25;;;1.60;99.90;;;;;;4889188;29;20104;-62
2023/04/08 04:58:29;;;;;;;19.60;9.10;;;1.60;99.90;;;;;;4890510;29;20060;-63
2023/04/08 05:00:56;;;;;;;13.32;7.47;;;1.60;99.90;;;;;;4891285;29;20407;-65
2023/04/08 05:03:23;;;;;;;14.23;7.55;;;1.70;99.90;;;;;;4890308;29;20495;-64
2023/04/08 05:05:52;;;;;;;11.18;7.57;;;1.70;99.90;;;;;;4889572;29;20630;-61
2023/04/08 05:08:19;;;;;;;14.75;7.90;;;1.70;99.90;;;;;;4892548;29;20056;-64
2023/04/08 05:10:48;;;;;;;11.50;7.60;;;1.70;99.90;;;;;;4890175;29;20071;-62
2023/04/08 05:13:16;;;;;;;11.05;7.82;;;1.80;99.90;;;;;;4890166;29;20048;-62
2023/04/08 05:15:46;;;;;;;17.90;7.57;;;1.80;99.90;;;;;;4888958;29;20065;-66
2023/04/08 05:18:13;;;;;;;13.45;5.38;;;1.80;99.90;;;;;;4890982;29;20116;-63
2023/04/08 05:20:40;;;;;;;13.35;7.32;;;1.80;99.90;;;;;;4890382;29;20418;-62
2023/04/08 05:23:07;;;;;;;14.75;8.00;;;1.90;99.90;;;;;;4889132;29;20131;-61
2023/04/08 05:25:35;;;;;;;9.73;6.70;;;1.90;99.90;;;;;;4891120;29;20127;-63
2023/04/08 05:28:02;;;;;;;13.63;7.75;;;2.00;99.90;;;;;;4888847;29;20080;-63
2023/04/08 05:30:29;;;;;;;14.73;7.63;;;2.00;99.90;;;;;;4889991;29;20052;-62
2023/04/08 05:32:56;;;;;;;10.00;6.75;;;2.10;99.90;;;;;;4888975;29;20069;-63
2023/04/08 05:35:26;;;;;;;16.77;9.00;;;2.20;99.90;;;;;;4890449;29;20072;-63
2023/04/08 05:37:53;;;;;;;11.73;7.50;;;2.20;99.90;;;;;;4889113;29;20079;-62
2023/04/08 05:40:20;;;;;;;14.88;7.40;;;2.20;99.90;;;;;;4890595;29;20049;-62
2023/04/08 05:42:47;;;;;;;10.05;6.60;;;2.30;99.90;;;;;;4889848;29;20045;-62
2023/04/08 05:45:15;;;;;;;11.27;6.70;;;2.40;99.90;;;;;;4889629;29;20053;-64
2023/04/08 05:47:41;;;;;;;14.75;8.70;;;2.50;99.90;;;;;;4888530;29;20222;-63
2023/04/08 05:50:10;;;;;;;10.88;8.45;;;2.50;99.90;;;;;;4890053;29;20048;-63
2023/04/08 05:52:40;;;;;;;11.77;6.72;;;2.50;99.90;;;;;;4889199;29;20071;-63
2023/04/08 05:55:07;;;;;;;16.25;7.30;;;2.60;99.90;;;;;;4889828;29;20054;-61
2023/04/08 05:57:34;;;;;;;13.35;7.15;;;2.70;99.90;;;;;;4889924;29;20155;-61
2023/04/08 06:00:06;;;;;;;12.18;6.20;;;2.80;99.90;;;;;;4887678;29;20116;-64
2023/04/08 06:02:36;;;;;;;11.35;7.05;;;2.90;99.90;;;;;;4885807;29;20045;-63
2023/04/08 06:05:03;;;;;;;11.35;7.60;;;2.90;99.90;;;;;;4889643;29;20271;-62
2023/04/08 06:07:31;;;;;;;13.27;7.68;;;3.00;99.90;;;;;;4888640;29;20057;-63
2023/04/08 06:09:58;;;;;;;11.18;7.82;;;3.10;99.90;;;;;;4888129;29;20063;-67
2023/04/08 06:12:25;;;;;;;12.23;7.03;;;3.10;99.90;;;;;;4892998;29;20048;-63
2023/04/08 06:14:55;;;;;;;11.43;6.85;;;3.20;99.90;;;;;;4890637;29;20399;-61
2023/04/08 06:17:22;;;;;;;10.45;7.40;;;3.20;99.90;;;;;;4893902;29;20071;-62
2023/04/08 06:19:49;;;;;;;12.70;6.38;;;3.30;99.90;;;;;;4887652;29;20100;-66
2023/04/08 06:22:16;;;;;;;11.50;6.38;;;3.40;99.90;;;;;;4889086;29;20063;-62
2023/04/08 06:24:45;;;;;;;9.52;6.05;;;3.50;99.90;;;;;;4889336;29;20108;-63
2023/04/08 06:27:12;;;;;;;7.75;6.28;;;3.50;99.90;;;;;;4889057;29;20606;-66
2023/04/08 06:29:40;;;;;;;9.75;7.43;;;3.60;99.90;;;;;;4887564;29;20048;-62
2023/04/08 06:32:09;;;;;;;12.20;7.78;;;3.70;99.90;;;;;;4887522;29;20052;-63
2023/04/08 06:34:36;;;;;;;9.90;7.25;;;3.70;99.90;;;;;;4888199;29;20492;-63
2023/04/08 06:37:03;;;;;;;10.18;7.88;;;3.80;99.90;;;;;;4888616;29;20052;-62
2023/04/08 06:39:30;;;;;;;9.43;6.30;;;3.90;99.90;;;;;;4889100;29;20065;-63
2023/04/08 06:41:57;;;;;;;13.23;7.40;;;4.00;99.90;;;;;;4886834;29;20143;-62
2023/04/08 06:44:34;;;;;;;9.55;6.20;;;4.10;99.90;;;;;;4883671;29;20092;-65
2023/04/08 06:47:01;;;;;;;8.38;5.47;;;4.20;99.90;;;;;;4889486;29;20048;-62
2023/04/08 06:49:28;;;;;;;8.18;5.90;;;4.30;99.90;;;;;;4879517;29;20419;-62
2023/04/08 06:51:55;;;;;;;10.88;7.32;;;4.40;99.90;;;;;;4887714;29;20045;-63
2023/04/08 06:54:22;;;;;;;8.15;5.43;;;4.40;99.90;;;;;;4889356;29;20067;-63
2023/04/08 06:56:49;;;;;;;9.57;6.35;;;4.50;99.90;;;;;;4887875;29;20072;-63
2023/04/08 06:59:16;;;;;;;11.38;6.05;;;4.60;99.90;;;;;;4889971;29;20056;-67
2023/04/08 07:01:43;;;;;;;9.60;5.60;;;4.70;99.90;;;;;;4886288;29;20694;-61
2023/04/08 07:04:10;;;;;;;15.10;6.07;;;4.80;99.90;;;;;;4887988;29;20522;-65
2023/04/08 07:06:37;;;;;;;12.30;6.18;;;4.90;99.90;;;;;;4889316;29;20071;-62
2023/04/08 07:09:04;;;;;;;8.75;5.85;;;5.00;99.90;;;;;;4889119;29;20151;-62
2023/04/08 07:11:31;;;;;;;9.48;6.25;;;5.10;99.90;;;;;;4888123;29;20058;-64
2023/04/08 07:13:58;;;;;;;7.78;5.32;;;5.20;99.90;;;;;;4887854;29;20052;-62
2023/04/08 07:16:25;;;;;;;11.20;6.50;;;5.20;99.90;;;;;;4891224;29;20053;-62
2023/04/08 07:18:52;;;;;;;7.45;6.40;;;5.40;99.90;;;;;;4892905;29;20065;-63
2023/04/08 07:21:19;;;;;;;7.60;5.28;;;5.50;99.90;;;;;;4892760;29;20419;-61
2023/04/08 07:23:46;;;;;;;6.03;4.97;;;5.50;99.90;;;;;;4889786;29;20483;-62
2023/04/08 07:26:13;;;;;;;9.93;6.25;;;5.60;99.90;;;;;;4891548;29;20048;-65
2023/04/08 07:28:40;;;;;;;12.32;5.53;;;5.70;99.90;;;;;;4891726;29;20048;-62
2023/04/08 07:31:09;;;;;;;9.63;4.80;;;5.60;99.90;;;;;;4890082;29;20044;-62
2023/04/08 07:33:36;;;;;;;5.80;5.03;;;5.60;99.90;;;;;;4891592;29;20059;-65
2023/04/08 07:36:03;;;;;;;6.82;4.80;;;5.60;99.90;;;;;;4889779;29;20291;-62
2023/04/08 07:38:30;;;;;;;7.07;4.60;;;5.60;99.90;;;;;;4892026;29;20643;-62
2023/04/08 07:40:57;;;;;;;4.93;3.95;;;5.80;99.90;;;;;;4890202;29;20392;-62
2023/04/08 07:43:24;;;;;;;5.97;3.35;;;5.90;99.90;;;;;;4892447;29;20049;-60
2023/04/08 07:45:51;;;;;;;5.47;4.68;;;6.10;99.90;;;;;;4890942;29;20059;-60
2023/04/08 07:48:18;;;;;;;5.65;4.18;;;6.20;99.90;;;;;;4892677;29;20388;-61
2023/04/08 07:50:45;;;;;;;8.02;4.20;;;6.30;99.90;;;;;;4887945;29;20139;-60
2023/04/08 07:53:33;;;;;;;8.32;4.18;;;6.50;99.90;;;;;;4890834;29;20078;-64
2023/04/08 07:56:00;;;;;;;6.55;3.72;;;6.60;99.90;;;;;;4890690;29;20067;-62
2023/04/08 07:58:27;;;;;;;5.03;3.30;;;6.70;99.90;;;;;;4890219;29;20064;-59
2023/04/08 08:00:56;;;;;;;8.60;4.28;;;6.90;99.90;;;;;;4891974;29;20467;-65
2023/04/08 08:03:23;;;;;;;6.75;3.08;;;7.00;99.90;;;;;;4890991;29;20060;-61
2023/04/08 08:05:50;;;;;;;11.85;5.35;;;7.10;99.90;;;;;;4888434;29;20059;-62
2023/04/08 08:08:17;;;;;;;5.80;4.13;;;7.20;99.90;;;;;;4890764;29;20087;-65
2023/04/08 08:10:44;;;;;;;3.88;3.20;;;7.30;99.90;;;;;;4891350;29;20376;-63
2023/04/08 08:13:13;;;;;;;6.68;3.38;;;7.30;99.90;;;;;;4890445;29;20059;-63
2023/04/08 08:15:40;;;;;;;13.63;4.22;;;7.40;99.90;;;;;;4893736;29;20116;-65
2023/04/08 08:18:07;;;;;;;9.23;5.50;;;7.30;99.90;;;;;;4889481;29;20068;-62
2023/04/08 08:20:35;;;;;;;7.18;4.88;;;6.90;99.90;;;;;;4891354;29;20156;-62
2023/04/08 08:23:02;;;;;;;14.52;5.18;;;6.80;99.90;;;;;;4888083;29;20068;-63
2023/04/08 08:25:28;;;;;;;22.23;4.53;;;6.90;99.90;;;;;;4890845;29;20056;-61
2023/04/08 08:27:55;;;;;;;10.85;5.70;;;6.90;99.90;;;;;;4888898;29;20060;-61
2023/04/08 08:30:22;;;;;;;9.13;5.28;;;7.00;99.90;;;;;;4885185;29;20055;-62
2023/04/08 08:32:50;;;;;;;7.18;3.92;;;7.00;99.90;;;;;;4889301;29;20056;-63
2023/04/08 08:35:18;;;;;;;11.43;5.40;;;7.00;99.90;;;;;;4887154;29;20088;-61
2023/04/08 08:37:44;;;;;;;6.45;4.35;;;6.90;99.90;;;;;;4888767;29;20367;-62
2023/04/08 08:40:13;;;;;;;7.50;4.03;;;7.00;99.90;;;;;;4887165;29;20048;-63
2023/04/08 08:42:40;;;;;;;6.80;4.55;;;7.00;99.90;;;;;;4890801;29;20484;-61
2023/04/08 08:45:07;;;;;;;11.15;5.68;;;7.00;99.90;;;;;;4891423;29;20076;-65
2023/04/08 08:47:34;;;;;;;6.53;4.68;;;7.00;99.90;;;;;;4891817;29;20049;-61
2023/04/08 08:50:02;;;;;;;9.98;5.00;;;6.70;99.90;;;;;;4888756;29;20098;-64
2023/04/08 08:52:28;;;;;;;10.38;5.32;;;6.70;99.90;;;;;;4891544;29;20049;-62
2023/04/08 08:54:57;;;;;;;12.38;6.00;;;6.50;99.90;;;;;;4890701;29;20075;-61
2023/04/08 08:57:25;;;;;;;15.10;5.60;;;6.50;99.90;;;;;;4890202;29;20057;-63
2023/04/08 08:59:52;;;;;;;8.48;4.80;;;6.50;99.90;;;;;;4887493;29;20063;-62
2023/04/08 09:02:27;;;;;;;11.45;6.28;;;6.40;99.90;;;;;;4890620;29;20060;-61
2023/04/08 09:05:00;;;;;;;12.82;6.78;;;6.40;99.90;;;;;;4890355;29;20127;-62
2023/04/08 09:07:29;;;;;;;9.75;5.93;;;6.30;99.90;;;;;;4873430;29;20456;-64
2023/04/08 09:09:57;;;;;;;12.60;6.13;;;6.30;99.90;;;;;;4886803;29;20063;-63
2023/04/08 09:12:27;;;;;;;13.20;6.85;;;6.30;99.90;;;;;;4891860;29;20628;-63
2023/04/08 09:15:04;;;;;;;10.77;5.97;;;6.40;99.90;;;;;;4890201;29;20144;-63
2023/04/08 09:17:38;;;;;;;11.07;5.28;;;6.40;99.90;;;;;;4889961;29;20139;-63
2023/04/08 09:20:11;;;;;;;11.57;6.07;;;6.40;99.90;;;;;;4889140;29;20135;-62
2023/04/08 09:22:57;;;;;;;11.40;7.38;;;6.40;99.90;;;;;;4889958;29;20059;-61
2023/04/08 09:25:29;;;;;;;9.70;6.55;;;6.50;99.90;;;;;;4890721;29;20499;-63
2023/04/08 09:27:56;;;;;;;8.65;5.95;;;6.40;99.90;;;;;;4887208;29;20060;-64
2023/04/08 09:30:24;;;;;;;10.00;6.75;;;6.30;99.90;;;;;;4889890;29;20059;-62
2023/04/08 09:32:58;;;;;;;7.63;5.63;;;6.40;99.90;;;;;;4889874;29;20148;-63
2023/04/08 09:35:25;;;;;;;9.65;7.00;;;6.50;99.90;;;;;;4888937;29;20156;-62
2023/04/08 09:37:52;;;;;;;15.15;7.20;;;6.50;99.90;;;;;;4887996;29;20048;-61
2023/04/08 09:40:19;;;;;;;11.05;6.07;;;6.40;99.90;;;;;;4890459;29;20081;-63
2023/04/08 09:42:49;;;;;;;10.32;6.88;;;6.50;99.90;;;;;;4890218;29;20474;-62
2023/04/08 09:45:17;;;;;;;;;;;6.40;99.90;;;;;;4890126;29;20100;-61
2023/04/08 09:47:56;;;;;;;11.18;7.30;;;6.50;99.90;;;;;;4889253;29;20025;-62
2023/04/08 09:50:30;;;;;;;16.80;7.57;;;6.30;99.90;;;;;;4888844;29;20536;-61
2023/04/08 09:53:08;;;;;;;12.93;6.55;;;6.30;99.90;;;;;;4887938;29;20143;-63
2023/04/08 09:55:36;;;;;;;11.20;6.82;;;6.40;99.90;;;;;;4889138;29;20059;-65
2023/04/08 09:58:15;;;;;;;8.02;5.60;;;6.50;99.90;;;;;;4883503;29;20407;-62
2023/04/08 10:00:49;;;;;;;17.73;7.07;;;6.50;99.90;;;;;;4890203;29;20076;-62
2023/04/08 10:03:19;;;;;;;13.43;7.70;;;6.60;99.90;;;;;;4887756;29;20056;-61
2023/04/08 10:05:47;;;;;;;;;;;6.50;99.90;;;;;;4888891;29;20053;-65
2023/04/08 10:08:15;;;;;;;9.60;6.20;;;6.50;99.90;;;;;;4889307;29;19927;-64
2023/04/08 10:10:42;;;;;;;7.97;5.75;;;6.50;99.90;;;;;;4889463;29;20048;-65
2023/04/08 10:13:10;;;;;;;9.27;6.43;;;6.40;99.90;;;;;;4885466;29;20044;-63
2023/04/08 10:15:39;;;;;;;8.05;5.82;;;6.40;99.90;;;;;;4889686;29;20570;-61
2023/04/08 10:18:09;;;;;;;9.20;6.63;;;6.40;99.90;;;;;;4890479;29;20048;-63
2023/04/08 10:20:36;;;;;;;8.48;5.30;;;6.50;99.90;;;;;;4889138;29;20272;-62
2023/04/08 10:23:03;;;;;;;13.25;6.53;;;6.50;99.90;;;;;;4888206;29;20084;-62
2023/04/08 10:25:37;;;;;;;11.73;6.82;;;6.60;99.90;;;;;;4889527;29;20058;-62
2023/04/08 10:28:10;;;;;;;8.77;6.03;;;6.50;99.90;;;;;;4886293;29;20234;-61
2023/04/08 10:30:47;;;;;;;6.65;5.00;;;6.60;99.90;;;;;;4888479;29;20396;-61
2023/04/08 10:33:30;;;;;;;13.02;6.10;;;6.60;99.90;;;;;;4888897;29;20063;-65
2023/04/08 10:36:10;;;;;;;9.32;5.80;;;6.50;99.90;;;;;;4890235;29;20508;-62
2023/04/08 10:38:38;;;;;;;11.93;6.40;;;6.50;99.90;;;;;;4889864;29;20088;-65
2023/04/08 10:41:05;;;;;;;13.35;6.25;;;6.50;99.90;;;;;;4889731;29;20049;-63
2023/04/08 10:43:33;;;;;;;9.02;6.00;;;6.50;99.90;;;;;;4888983;29;20462;-61
2023/04/08 10:46:00;;;;;;;11.20;5.78;;;6.50;99.90;;;;;;4886660;29;20048;-62
2023/04/08 10:48:28;;;;;;;12.60;6.95;;;6.50;99.90;;;;;;4889720;29;20098;-61
2023/04/08 10:51:02;;;;;;;17.77;6.28;;;6.60;99.90;;;;;;4889208;29;20056;-64
2023/04/08 10:53:38;;;;;;;9.52;5.35;;;6.70;99.90;;;;;;4886535;29;20052;-61
2023/04/08 10:56:13;;;;;;;9.82;5.13;;;6.80;99.90;;;;;;4887620;29;20040;-66
2023/04/08 10:58:48;;;;;;;11.98;5.50;;;6.70;99.90;;;;;;4886609;29;20056;-61
2023/04/08 11:01:16;;;;;;;7.18;5.38;;;6.60;99.90;;;;;;4888510;29;20052;-62
2023/04/08 11:03:44;;;;;;;9.63;6.35;;;6.60;99.90;;;;;;4889852;29;20056;-62
2023/04/08 11:06:11;;;;;;;9.18;5.30;;;6.60;99.90;;;;;;4886472;29;20060;-64
2023/04/08 11:08:38;;;;;;;13.02;5.43;;;6.50;99.90;;;;;;4871798;29;20157;-62
2023/04/08 11:11:09;;;;;;;11.55;5.72;;;6.40;99.90;;;;;;4868067;29;20126;-63
2023/04/08 11:13:40;;;;;;;9.55;5.88;;;6.30;99.90;;;;;;4870374;29;20049;-63
2023/04/08 11:16:19;;;;;;;8.95;5.93;;;6.20;99.90;;;;;;4868691;29;20065;-62
2023/04/08 11:18:46;;;;;;;7.57;6.50;;;6.10;99.90;;;;;;4871486;29;20586;-63
2023/04/08 11:21:15;;;;;;;10.75;5.20;;;6.00;99.90;;;;;;4869659;29;20152;-65
2023/04/08 11:23:42;;;;;;;10.02;5.35;;;6.10;99.90;;;;;;4868875;29;20093;-63
2023/04/08 11:26:10;;;;;;;10.80;5.40;;;6.10;99.90;;;;;;4871933;29;20063;-62
2023/04/08 11:28:37;;;;;;;15.27;8.18;;;6.00;99.90;;;;;;4870194;29;20567;-62
2023/04/08 11:31:04;;;;;;;8.40;5.63;;;6.00;99.90;;;;;;4869576;29;20049;-61
2023/04/08 11:33:33;;;;;;;8.50;5.30;;;6.00;99.90;;;;;;4870603;29;20062;-62
2023/04/08 11:36:04;;;;;;;9.05;6.22;;;6.00;99.90;;;;;;4868782;29;20056;-61
2023/04/08 11:38:31;;;;;;;9.32;5.28;;;5.90;99.90;;;;;;4870063;29;20049;-62
2023/04/08 11:40:59;;;;;;;10.07;6.32;;;5.90;99.90;;;;;;4871085;29;20045;-65
2023/04/08 11:43:27;;;;;;;11.10;5.40;;;5.90;99.90;;;;;;4869850;29;20092;-64
2023/04/08 11:45:54;;;;;;;9.02;4.88;;;5.90;99.90;;;;;;4869205;29;20049;-66
2023/04/08 11:48:22;;;;;;;7.53;5.65;;;5.90;99.90;;;;;;4868091;29;20605;-62
2023/04/08 11:51:03;;;;;;;10.65;5.63;;;5.90;99.90;;;;;;4870669;29;20049;-64
2023/04/08 11:53:30;;;;;;;9.48;6.13;;;6.00;99.90;;;;;;4863866;29;20105;-62
2023/04/08 11:55:57;;;;;;;11.80;5.68;;;5.90;99.90;;;;;;4867951;29;20063;-62
2023/04/08 11:58:24;;;;;;;10.80;6.80;;;6.00;99.90;;;;;;4870682;29;20162;-65
2023/04/08 12:00:50;;;;;;;8.88;5.40;;;5.90;99.90;;;;;;4873822;29;20045;-62
2023/04/08 12:03:17;;;;;;;10.60;5.38;;;5.90;99.90;;;;;;4869748;29;20093;-62
2023/04/08 12:05:45;;;;;;;9.25;5.25;;;6.00;99.90;;;;;;4871377;29;20112;-65
2023/04/08 12:08:12;;;;;;;16.30;6.03;;;6.10;99.90;;;;;;4888323;29;20032;-66
2023/04/08 12:10:39;;;;;;;10.30;4.82;;;6.20;99.90;;;;;;4874103;29;20045;-62
2023/04/08 12:13:06;;;;;;;8.48;4.15;;;6.20;99.90;;;;;;4892333;29;20047;-64
2023/04/08 12:15:33;;;;;;;7.85;5.43;;;6.20;99.90;;;;;;4892714;29;20048;-63
2023/04/08 12:17:59;;;;;;;9.70;4.45;;;6.20;99.90;;;;;;4892841;29;20510;-65
2023/04/08 12:20:26;;;;;;;8.10;4.00;;;6.20;99.90;;;;;;4893037;29;20075;-62
2023/04/08 12:22:53;;;;;;;8.65;4.97;;;6.20;99.90;;;;;;4891239;29;20120;-62
2023/04/08 12:25:20;;;;;;;8.65;5.15;;;6.20;99.90;;;;;;4892423;29;20052;-62
2023/04/08 12:27:47;;;;;;;7.25;4.40;;;6.20;99.90;;;;;;4889668;29;20061;-64
2023/04/08 12:30:14;;;;;;;8.63;4.78;;;6.10;99.90;;;;;;4893307;29;20521;-67
2023/04/08 12:32:44;;;;;;;12.32;5.18;;;6.10;99.90;;;;;;4892096;29;20057;-63
2023/04/08 12:35:11;;;;;;;8.55;4.97;;;6.10;99.90;;;;;;4890559;29;20059;-64
2023/04/08 12:37:38;;;;;;;10.23;6.72;;;6.10;99.90;;;;;;4890277;29;20094;-62
2023/04/08 12:40:06;;;;;;;6.72;5.65;;;6.20;99.90;;;;;;4889525;29;20052;-62
2023/04/08 12:42:33;;;;;;;7.13;4.75;;;6.30;99.90;;;;;;4891583;29;20071;-59
2023/04/08 12:45:00;;;;;;;6.28;4.78;;;6.30;99.90;;;;;;4891172;29;20128;-61
2023/04/08 12:47:27;;;;;;;10.35;5.60;;;6.30;99.90;;;;;;4891955;29;20163;-61
2023/04/08 12:49:54;;;;;;;12.93;5.28;;;6.40;99.90;;;;;;4889389;29;20112;-62
2023/04/08 12:52:21;;;;;;;9.05;5.47;;;6.30;99.90;;;;;;4890887;29;20790;-62
2023/04/08 12:54:48;;;;;;;7.20;5.40;;;6.30;99.90;;;;;;4891764;29;20850;-62
2023/04/08 12:57:16;;;;;;;10.35;4.85;;;6.50;99.90;;;;;;4890455;29;20059;-65